createdAt,value
2018-03-27T00:01:41.096Z,98013.72
2018-03-27T00:04:10.132Z,98028.75
2018-03-27T00:06:38.502Z,98007.09
2018-03-27T00:09:06.865Z,98003.97
2018-03-27T00:11:35.125Z,98000.34
2018-03-27T00:14:04.172Z,98008.81
2018-03-27T00:16:32.577Z,97999.79
2018-03-27T00:19:00.798Z,98005.86
2018-03-27T00:21:29.076Z,98007.38
2018-03-27T00:23:57.326Z,98017.41
2018-03-27T00:26:25.593Z,98015.70
2018-03-27T00:29:12.333Z,98014.22
2018-03-27T00:31:58.484Z,98013.11
2018-03-27T00:34:44.468Z,98013.97
2018-03-27T00:37:30.624Z,98013.22
2018-03-27T00:40:16.696Z,98011.94
2018-03-27T00:42:51.544Z,98009.51
2018-03-27T00:45:19.813Z,98007.90
2018-03-27T00:47:48.080Z,98006.61
2018-03-27T00:50:16.332Z,98007.50
2018-03-27T00:52:45.381Z,98006.82
2018-03-27T00:55:13.678Z,98007.95
2018-03-27T00:57:41.938Z,98005.92
2018-03-27T01:00:10.221Z,98001.61
2018-03-27T01:02:38.480Z,97996.54
2018-03-27T01:05:10.584Z,97997.48
2018-03-27T01:07:38.853Z,97986.92
2018-03-27T01:10:07.106Z,97983.68
2018-03-27T01:12:35.372Z,97975.88
2018-03-27T01:15:03.680Z,97979.59
2018-03-27T01:17:31.936Z,97979.47
2018-03-27T01:20:00.213Z,97981.29
2018-03-27T01:22:28.465Z,97976.01
2018-03-27T01:24:56.734Z,97974.47
2018-03-27T01:27:25.018Z,97976.77
2018-03-27T01:29:53.271Z,97976.57
2018-03-27T01:32:22.304Z,97978.60
2018-03-27T01:34:50.576Z,97975.91
2018-03-27T01:37:18.834Z,97979.51
2018-03-27T01:39:47.086Z,97969.16
2018-03-27T01:42:16.136Z,97971.18
2018-03-27T01:44:44.416Z,97963.00
2018-03-27T01:47:12.691Z,97957.84
2018-03-27T01:49:40.957Z,97957.42
2018-03-27T01:52:09.214Z,97946.98
2018-03-27T01:54:37.489Z,97945.38
2018-03-27T01:57:05.753Z,97945.55
2018-03-27T01:59:34.025Z,97947.56
2018-03-27T02:02:02.301Z,97944.29
2018-03-27T02:04:30.572Z,97939.98
2018-03-27T02:06:59.742Z,97944.02
2018-03-27T02:09:28.073Z,97945.11
2018-03-27T02:12:01.860Z,97939.22
2018-03-27T02:14:35.727Z,97937.78
2018-03-27T02:17:09.526Z,97928.84
2018-03-27T02:19:43.331Z,97928.75
2018-03-27T02:22:11.589Z,97918.48
2018-03-27T02:24:39.835Z,97921.92
2018-03-27T02:27:08.105Z,97918.53
2018-03-27T02:29:36.376Z,97925.27
2018-03-27T02:32:04.637Z,97922.20
2018-03-27T02:34:33.676Z,97922.41
2018-03-27T02:37:01.927Z,97914.25
2018-03-27T02:39:30.185Z,97916.87
2018-03-27T02:42:00.448Z,97916.88
2018-03-27T02:44:28.712Z,97912.18
2018-03-27T02:46:56.980Z,97922.19
2018-03-27T02:49:25.237Z,97914.31
2018-03-27T02:51:54.298Z,97918.08
2018-03-27T02:54:22.565Z,97917.14
2018-03-27T02:56:50.822Z,97917.35
2018-03-27T02:59:19.113Z,97913.97
2018-03-27T03:01:47.372Z,97913.78
2018-03-27T03:04:15.639Z,97909.63
2018-03-27T03:06:43.908Z,97910.33
2018-03-27T03:09:12.181Z,97909.47
2018-03-27T03:11:40.435Z,97911.16
2018-03-27T03:14:09.501Z,97913.67
2018-03-27T03:16:37.747Z,97912.91
2018-03-27T03:19:06.035Z,97907.71
2018-03-27T03:21:34.292Z,97910.75
2018-03-27T03:24:02.556Z,97911.14
2018-03-27T03:26:30.812Z,97908.52
2018-03-27T03:28:59.876Z,97909.14
2018-03-27T03:31:28.125Z,97908.24
2018-03-27T03:33:56.393Z,97909.09
2018-03-27T03:36:24.660Z,97903.49
2018-03-27T03:38:52.922Z,97908.40
2018-03-27T03:41:21.421Z,97909.84
2018-03-27T03:43:49.680Z,97902.77
2018-03-27T03:46:18.706Z,97908.00
2018-03-27T03:48:46.984Z,97906.16
2018-03-27T03:51:15.276Z,97900.64
2018-03-27T03:53:43.540Z,97900.23
2018-03-27T03:56:11.825Z,97901.60
2018-03-27T03:58:40.085Z,97896.78
2018-03-27T04:01:08.362Z,97899.80
2018-03-27T04:03:36.654Z,97893.64
2018-03-27T04:06:04.924Z,97897.18
2018-03-27T04:08:33.183Z,97886.98
2018-03-27T04:11:01.453Z,97883.69
2018-03-27T04:13:29.711Z,97891.63
2018-03-27T04:15:57.961Z,97892.44
2018-03-27T04:18:26.232Z,97888.84
2018-03-27T04:20:54.492Z,97889.66
2018-03-27T04:23:22.769Z,97890.53
2018-03-27T04:25:51.024Z,97889.17
2018-03-27T04:28:19.295Z,97883.13
2018-03-27T04:30:47.584Z,97882.37
2018-03-27T04:33:15.837Z,97889.72
2018-03-27T04:35:44.088Z,97885.98
2018-03-27T04:38:13.134Z,97884.03
2018-03-27T04:40:41.517Z,97891.65
2018-03-27T04:43:09.749Z,97894.68
2018-03-27T04:45:38.033Z,97889.02
2018-03-27T04:48:06.292Z,97890.37
2018-03-27T04:50:34.549Z,97887.14
2018-03-27T04:53:03.589Z,97896.52
2018-03-27T04:55:31.844Z,97880.95
2018-03-27T04:58:00.108Z,97882.45
2018-03-27T05:00:29.163Z,97884.31
2018-03-27T05:02:57.417Z,97893.45
2018-03-27T05:05:25.730Z,97897.08
2018-03-27T05:07:53.992Z,97900.36
2018-03-27T05:10:22.256Z,97897.30
2018-03-27T05:12:50.540Z,97890.20
2018-03-27T05:15:18.796Z,97890.48
2018-03-27T05:17:47.074Z,97891.66
2018-03-27T05:20:15.340Z,97891.07
2018-03-27T05:22:43.616Z,97892.02
2018-03-27T05:25:11.879Z,97895.78
2018-03-27T05:27:40.156Z,97896.39
2018-03-27T05:30:08.417Z,97897.02
2018-03-27T05:32:37.446Z,97895.44
2018-03-27T05:35:05.732Z,97887.41
2018-03-27T05:37:33.996Z,97886.44
2018-03-27T05:40:02.278Z,97882.98
2018-03-27T05:42:30.554Z,97887.07
2018-03-27T05:44:58.814Z,97890.91
2018-03-27T05:47:27.074Z,97887.13
2018-03-27T05:49:55.372Z,97891.27
2018-03-27T05:52:23.637Z,97892.20
2018-03-27T05:54:51.907Z,97886.02
2018-03-27T05:57:20.159Z,97895.25
2018-03-27T05:59:49.202Z,97898.52
2018-03-27T06:02:17.477Z,97891.58
2018-03-27T06:04:45.727Z,97888.48
2018-03-27T06:07:13.984Z,97891.65
2018-03-27T06:09:43.012Z,97891.41
2018-03-27T06:12:11.272Z,97891.28
2018-03-27T06:14:39.548Z,97892.78
2018-03-27T06:17:07.809Z,97894.80
2018-03-27T06:19:36.830Z,97890.66
2018-03-27T06:22:05.101Z,97894.44
2018-03-27T06:24:33.362Z,97893.81
2018-03-27T06:27:02.385Z,97890.66
2018-03-27T06:29:30.664Z,97892.88
2018-03-27T06:31:58.928Z,97896.92
2018-03-27T06:34:27.201Z,97900.87
2018-03-27T06:36:55.464Z,97895.91
2018-03-27T06:39:23.718Z,97895.05
2018-03-27T06:41:53.124Z,97892.48
2018-03-27T06:44:22.153Z,97896.45
2018-03-27T06:46:50.408Z,97891.14
2018-03-27T06:49:18.725Z,97893.44
2018-03-27T06:51:46.996Z,97891.62
2018-03-27T06:54:15.256Z,97892.90
2018-03-27T06:56:43.513Z,97890.34
2018-03-27T06:59:11.788Z,97883.94
2018-03-27T07:01:40.048Z,97889.16
2018-03-27T07:04:09.086Z,97888.52
2018-03-27T07:06:37.361Z,97889.22
2018-03-27T07:09:06.424Z,97881.84
2018-03-27T07:11:35.448Z,97877.50
2018-03-27T07:14:03.831Z,97879.15
2018-03-27T07:16:32.105Z,97877.70
2018-03-27T07:19:00.390Z,97869.38
2018-03-27T07:21:28.617Z,97868.41
2018-03-27T07:23:57.661Z,97871.73
2018-03-27T07:26:25.920Z,97868.19
2018-03-27T07:28:54.184Z,97869.69
2018-03-27T07:31:22.452Z,97870.33
2018-03-27T07:33:50.716Z,97866.95
2018-03-27T07:36:19.754Z,97863.23
2018-03-27T07:38:48.014Z,97870.47
2018-03-27T07:41:16.281Z,97869.31
2018-03-27T07:43:44.606Z,97864.93
2018-03-27T07:46:13.693Z,97868.00
2018-03-27T07:48:42.035Z,97867.38
2018-03-27T07:51:10.407Z,97860.71
2018-03-27T07:53:38.670Z,97855.67
2018-03-27T07:56:07.701Z,97857.97
2018-03-27T07:58:35.994Z,97852.63
2018-03-27T08:01:04.248Z,97852.78
2018-03-27T08:03:32.552Z,97844.38
2018-03-27T08:06:00.809Z,97842.33
2018-03-27T08:08:29.091Z,97841.59
2018-03-27T08:10:57.389Z,97837.09
2018-03-27T08:13:25.725Z,97840.15
2018-03-27T08:15:54.025Z,97830.70
2018-03-27T08:18:22.288Z,97829.88
2018-03-27T08:20:51.034Z,97822.52
2018-03-27T08:23:20.081Z,97823.95
2018-03-27T08:25:48.340Z,97824.80
2018-03-27T08:28:16.625Z,97822.73
2018-03-27T08:30:44.899Z,97826.27
2018-03-27T08:33:13.171Z,97817.70
2018-03-27T08:35:41.443Z,97824.23
2018-03-27T08:38:09.709Z,97824.32
2018-03-27T08:40:37.981Z,97820.53
2018-03-27T08:43:06.244Z,97823.00
2018-03-27T08:45:35.313Z,97817.65
2018-03-27T08:48:03.593Z,97815.22
2018-03-27T08:50:31.902Z,97801.28
2018-03-27T08:53:00.176Z,97802.22
2018-03-27T08:55:28.441Z,97795.88
2018-03-27T08:57:57.484Z,97791.19
2018-03-27T09:00:25.791Z,97791.64
2018-03-27T09:02:54.060Z,97786.56
2018-03-27T09:05:22.347Z,97789.95
2018-03-27T09:07:50.637Z,97793.36
2018-03-27T09:10:19.669Z,97789.52
2018-03-27T09:12:47.941Z,97787.81
2018-03-27T09:15:16.227Z,97788.23
2018-03-27T09:17:44.497Z,97788.67
2018-03-27T09:20:12.770Z,97780.18
2018-03-27T09:22:41.040Z,97777.59
2018-03-27T09:25:09.318Z,97775.87
2018-03-27T09:27:37.576Z,97770.70
2018-03-27T09:30:05.883Z,97767.14
2018-03-27T09:32:34.168Z,97760.52
2018-03-27T09:35:02.433Z,97755.63
2018-03-27T09:37:30.707Z,97747.86
2018-03-27T09:39:58.999Z,97746.88
2018-03-27T09:42:27.285Z,97742.52
2018-03-27T09:44:55.586Z,97741.30
2018-03-27T09:47:23.851Z,97743.84
2018-03-27T09:49:52.162Z,97739.56
2018-03-27T09:52:20.436Z,97739.49
2018-03-27T09:54:48.727Z,97727.41
2018-03-27T09:57:17.021Z,97725.88
2018-03-27T09:59:45.281Z,97720.09
2018-03-27T10:02:13.567Z,97719.38
2018-03-27T10:04:41.838Z,97718.26
2018-03-27T10:07:10.114Z,97717.64
2018-03-27T10:09:38.400Z,97720.64
2018-03-27T10:12:06.671Z,97715.94
2018-03-27T10:14:34.953Z,97716.02
2018-03-27T10:17:03.228Z,97715.06
2018-03-27T10:19:31.523Z,97708.56
2018-03-27T10:21:59.791Z,97705.54
2018-03-27T10:24:28.078Z,97705.16
2018-03-27T10:26:56.337Z,97695.80
2018-03-27T10:29:24.634Z,97699.48
2018-03-27T10:31:52.901Z,97691.02
2018-03-27T10:34:21.165Z,97694.88
2018-03-27T10:36:49.451Z,97690.70
2018-03-27T10:39:17.852Z,97682.78
2018-03-27T10:41:46.117Z,97694.14
2018-03-27T10:44:14.387Z,97682.36
2018-03-27T10:46:42.656Z,97677.20
2018-03-27T10:49:10.960Z,97674.51
2018-03-27T10:51:39.237Z,97663.50
2018-03-27T10:54:07.539Z,97660.84
2018-03-27T10:56:36.627Z,97663.17
2018-03-27T10:59:05.677Z,97661.36
2018-03-27T11:01:33.936Z,97664.77
2018-03-27T11:04:02.226Z,97659.48
2018-03-27T11:06:30.507Z,97650.68
2018-03-27T11:08:58.780Z,97647.05
2018-03-27T11:11:27.070Z,97643.06
2018-03-27T11:13:55.337Z,97643.58
2018-03-27T11:16:23.618Z,97634.83
2018-03-27T11:18:51.895Z,97649.34
2018-03-27T11:21:20.177Z,97643.30
2018-03-27T11:23:48.445Z,97636.27
2018-03-27T11:26:16.734Z,97624.38
2018-03-27T11:28:45.013Z,97623.94
2018-03-27T11:31:14.073Z,97627.12
2018-03-27T11:33:42.374Z,97625.02
2018-03-27T11:36:10.637Z,97620.00
2018-03-27T11:38:38.928Z,97617.55
2018-03-27T11:41:07.188Z,97605.66
2018-03-27T11:43:35.468Z,97608.44
2018-03-27T11:46:03.739Z,97612.06
2018-03-27T11:48:32.016Z,97600.62
2018-03-27T11:51:00.313Z,97609.13
2018-03-27T11:53:28.582Z,97610.53
2018-03-27T11:55:56.844Z,97602.61
2018-03-27T11:58:25.129Z,97600.19
2018-03-27T12:00:53.396Z,97586.99
2018-03-27T12:03:21.693Z,97575.70
2018-03-27T12:05:49.950Z,97567.86
2018-03-27T12:08:18.249Z,97575.76
2018-03-27T12:10:46.532Z,97567.91
2018-03-27T12:13:14.817Z,97574.98
2018-03-27T12:15:43.105Z,97564.98
2018-03-27T12:18:12.128Z,97564.22
2018-03-27T12:20:40.421Z,97563.30
2018-03-27T12:23:08.689Z,97558.97
2018-03-27T12:25:36.962Z,97561.30
2018-03-27T12:28:05.245Z,97556.03
2018-03-27T12:30:33.513Z,97549.83
2018-03-27T12:33:01.793Z,97542.33
2018-03-27T12:35:30.077Z,97534.41
2018-03-27T12:37:58.369Z,97534.52
2018-03-27T12:40:26.632Z,97525.95
2018-03-27T12:42:54.901Z,97532.08
2018-03-27T12:45:23.176Z,97531.75
2018-03-27T12:47:51.469Z,97527.28
2018-03-27T12:50:19.758Z,97516.09
2018-03-27T12:52:48.032Z,97512.41
2018-03-27T12:55:16.335Z,97510.23
2018-03-27T12:57:45.377Z,97501.20
2018-03-27T13:00:13.648Z,97489.56
2018-03-27T13:02:41.932Z,97487.31
2018-03-27T13:05:10.223Z,97477.58
2018-03-27T13:07:38.504Z,97478.45
2018-03-27T13:10:06.788Z,97478.27
2018-03-27T13:12:35.056Z,97479.23
2018-03-27T13:15:03.341Z,97483.44
2018-03-27T13:17:31.651Z,97486.61
2018-03-27T13:20:00.702Z,97485.03
2018-03-27T13:22:28.973Z,97475.09
2018-03-27T13:24:57.281Z,97472.72
2018-03-27T13:27:25.558Z,97475.86
2018-03-27T13:29:53.824Z,97480.34
2018-03-27T13:32:22.164Z,97471.94
2018-03-27T13:34:51.152Z,97467.38
2018-03-27T13:37:19.440Z,97467.77
2018-03-27T13:39:47.729Z,97471.72
2018-03-27T13:42:16.008Z,97471.64
2018-03-27T13:44:44.286Z,97472.73
2018-03-27T13:47:12.576Z,97472.72
2018-03-27T13:49:40.836Z,97468.91
2018-03-27T13:52:09.101Z,97463.02
2018-03-27T13:54:37.385Z,97460.11
2018-03-27T13:57:05.645Z,97463.26
2018-03-27T13:59:33.922Z,97459.23
2018-03-27T14:02:02.210Z,97458.45
2018-03-27T14:04:30.479Z,97460.41
2018-03-27T14:06:58.745Z,97468.73
2018-03-27T14:09:27.034Z,97459.88
2018-03-27T14:11:55.298Z,97449.69
2018-03-27T14:14:23.584Z,97451.09
2018-03-27T14:16:51.848Z,97443.34
2018-03-27T14:19:20.126Z,97444.22
2018-03-27T14:21:48.408Z,97441.42
2018-03-27T14:24:16.681Z,97439.08
2018-03-27T14:26:44.960Z,97434.12
2018-03-27T14:29:13.300Z,97425.61
2018-03-27T14:31:42.340Z,97421.41
2018-03-27T14:34:10.632Z,97417.22
2018-03-27T14:36:38.902Z,97415.28
2018-03-27T14:39:08.132Z,97409.36
2018-03-27T14:41:37.168Z,97407.03
2018-03-27T14:44:05.444Z,97403.13
2018-03-27T14:46:33.730Z,97397.74
2018-03-27T14:49:02.001Z,97392.02
2018-03-27T14:51:30.289Z,97392.23
2018-03-27T14:53:58.557Z,97382.30
2018-03-27T14:56:26.828Z,97388.52
2018-03-27T14:58:55.191Z,97379.00
2018-03-27T15:01:23.461Z,97377.15
2018-03-27T15:03:51.732Z,97373.27
2018-03-27T15:06:20.017Z,97370.94
2018-03-27T15:08:48.301Z,97366.24
2018-03-27T15:11:16.617Z,97357.98
2018-03-27T15:13:44.898Z,97349.69
2018-03-27T15:16:13.168Z,97340.50
2018-03-27T15:18:41.456Z,97338.17
2018-03-27T15:21:09.773Z,97333.53
2018-03-27T15:23:38.036Z,97329.59
2018-03-27T15:26:07.169Z,97323.77
2018-03-27T15:28:35.431Z,97319.09
2018-03-27T15:31:03.717Z,97313.59
2018-03-27T15:33:32.089Z,97308.34
2018-03-27T15:36:01.099Z,97306.92
2018-03-27T15:38:29.400Z,97301.89
2018-03-27T15:40:57.676Z,97294.27
2018-03-27T15:43:25.972Z,97296.31
2018-03-27T15:45:55.009Z,97299.97
2018-03-27T15:48:23.301Z,97294.21
2018-03-27T15:50:51.578Z,97293.21
2018-03-27T15:53:19.840Z,97290.14
2018-03-27T15:55:48.127Z,97285.52
2018-03-27T15:58:16.402Z,97290.13
2018-03-27T16:00:44.668Z,97281.38
2018-03-27T16:03:12.978Z,97281.19
2018-03-27T16:05:41.244Z,97286.14
2018-03-27T16:08:09.592Z,97281.69
2018-03-27T16:10:37.974Z,97285.77
2018-03-27T16:13:06.270Z,97291.41
2018-03-27T16:15:34.581Z,97294.00
2018-03-27T16:18:03.018Z,97284.38
2018-03-27T16:20:31.289Z,97283.78
2018-03-27T16:22:59.662Z,97279.23
2018-03-27T16:25:27.946Z,97276.01
2018-03-27T16:27:56.276Z,97266.63
2018-03-27T16:30:25.297Z,97265.09
2018-03-27T16:32:53.588Z,97273.08
2018-03-27T16:35:21.938Z,97265.63
2018-03-27T16:37:51.267Z,97263.21
2018-03-27T16:40:20.759Z,97265.12
2018-03-27T16:42:49.154Z,97261.70
2018-03-27T16:45:17.646Z,97265.63
2018-03-27T16:47:46.258Z,97259.44
2018-03-27T16:50:16.648Z,97263.38
2018-03-27T16:52:46.620Z,97260.66
2018-03-27T16:55:15.834Z,97268.40
2018-03-27T16:57:45.194Z,97269.98
2018-03-27T17:00:15.225Z,97268.03
2018-03-27T17:02:44.219Z,97264.87
2018-03-27T17:05:13.913Z,97266.67
2018-03-27T17:07:43.730Z,97263.26
2018-03-27T17:10:13.456Z,97255.16
2018-03-27T17:12:43.192Z,97254.95
2018-03-27T17:15:13.172Z,97252.96
2018-03-27T17:17:43.119Z,97253.41
2018-03-27T17:20:13.826Z,97255.98
2018-03-27T17:22:43.797Z,97251.58
2018-03-27T17:25:13.729Z,97255.10
2018-03-27T17:27:43.529Z,97258.53
2018-03-27T17:30:13.638Z,97257.27
2018-03-27T17:32:43.541Z,97254.78
2018-03-27T17:35:13.498Z,97251.78
2018-03-27T17:37:43.488Z,97254.45
2018-03-27T17:40:14.111Z,97254.87
2018-03-27T17:42:44.859Z,97253.98
2018-03-27T17:45:14.858Z,97248.05
2018-03-27T17:47:44.842Z,97247.72
2018-03-27T17:50:14.822Z,97253.58
2018-03-27T17:52:44.733Z,97254.75
2018-03-27T17:55:14.487Z,97247.08
2018-03-27T17:57:45.345Z,97246.12
2018-03-27T18:00:15.326Z,97245.33
2018-03-27T18:02:45.156Z,97243.51
2018-03-27T18:05:16.003Z,97239.59
2018-03-27T18:07:45.849Z,97233.58
2018-03-27T18:10:15.989Z,97237.48
2018-03-27T18:12:45.826Z,97229.80
2018-03-27T18:15:15.790Z,97243.00
2018-03-27T18:17:45.737Z,97240.00
2018-03-27T18:20:15.745Z,97244.23
2018-03-27T18:22:45.593Z,97245.27
2018-03-27T18:25:16.008Z,97246.16
2018-03-27T18:27:46.076Z,97246.66
2018-03-27T18:30:16.407Z,97247.86
2018-03-27T18:32:46.657Z,97247.95
2018-03-27T18:35:16.537Z,97253.66
2018-03-27T18:37:46.274Z,97250.86
2018-03-27T18:40:16.378Z,97249.19
2018-03-27T18:42:46.400Z,97250.78
2018-03-27T18:45:16.415Z,97257.16
2018-03-27T18:47:46.303Z,97252.52
2018-03-27T18:50:16.970Z,97252.05
2018-03-27T18:52:46.911Z,97250.30
2018-03-27T18:55:17.819Z,97250.91
2018-03-27T18:57:47.868Z,97244.13
2018-03-27T19:00:18.954Z,97241.64
2018-03-27T19:02:48.346Z,97241.53
2018-03-27T19:05:18.550Z,97241.94
2018-03-27T19:07:48.318Z,97235.08
2018-03-27T19:10:17.812Z,97232.89
2018-03-27T19:12:47.245Z,97235.14
2018-03-27T19:15:16.575Z,97230.09
2018-03-27T19:17:45.961Z,97232.79
2018-03-27T19:20:15.277Z,97232.00
2018-03-27T19:22:45.384Z,97230.68
2018-03-27T19:25:14.725Z,97231.16
2018-03-27T19:27:44.116Z,97227.81
2018-03-27T19:30:14.200Z,97221.89
2018-03-27T19:32:43.658Z,97220.23
2018-03-27T19:35:12.939Z,97210.11
2018-03-27T19:37:42.240Z,97213.03
2018-03-27T19:40:12.367Z,97205.78
2018-03-27T19:42:43.058Z,97203.28
2018-03-27T19:45:13.208Z,97199.35
2018-03-27T19:47:43.034Z,97198.13
2018-03-27T19:50:12.419Z,97193.45
2018-03-27T19:52:42.608Z,97188.78
2018-03-27T19:55:12.072Z,97185.45
2018-03-27T19:57:41.379Z,97187.17
2018-03-27T20:00:10.810Z,97190.23
2018-03-27T20:02:40.301Z,97183.05
2018-03-27T20:05:09.744Z,97186.44
2018-03-27T20:07:39.067Z,97177.11
2018-03-27T20:10:08.513Z,97171.20
2018-03-27T20:12:38.495Z,97169.91
2018-03-27T20:15:08.560Z,97166.89
2018-03-27T20:17:39.374Z,97159.70
2018-03-27T20:20:08.944Z,97155.01
2018-03-27T20:22:38.301Z,97162.39
2018-03-27T20:25:07.703Z,97153.47
2018-03-27T20:27:37.143Z,97155.96
2018-03-27T20:30:07.302Z,97147.02
2018-03-27T20:32:36.711Z,97147.05
2018-03-27T20:35:05.991Z,97146.57
2018-03-27T20:37:36.401Z,97143.15
2018-03-27T20:40:06.499Z,97135.02
2018-03-27T20:42:35.951Z,97133.72
2018-03-27T20:45:05.373Z,97132.03
2018-03-27T20:47:34.716Z,97129.51
2018-03-27T20:50:04.136Z,97130.45
2018-03-27T20:52:33.478Z,97127.92
2018-03-27T20:55:02.770Z,97129.55
2018-03-27T20:57:33.692Z,97124.55
2018-03-27T21:00:03.714Z,97123.24
2018-03-27T21:02:33.111Z,97122.44
2018-03-27T21:05:02.458Z,97111.42
2018-03-27T21:07:33.303Z,97107.98
2018-03-27T21:10:02.620Z,97102.81
2018-03-27T21:12:32.715Z,97101.84
2018-03-27T21:15:02.062Z,97097.08
2018-03-27T21:17:33.487Z,97100.77
2018-03-27T21:20:03.762Z,97100.45
2018-03-27T21:22:33.376Z,97097.02
2018-03-27T21:25:02.864Z,97096.63
2018-03-27T21:27:33.708Z,97092.36
2018-03-27T21:30:03.246Z,97085.92
2018-03-27T21:32:32.894Z,97091.06
2018-03-27T21:35:02.391Z,97086.02
2018-03-27T21:37:33.547Z,97084.75
2018-03-27T21:40:03.756Z,97081.39
2018-03-27T21:42:33.207Z,97078.07
2018-03-27T21:45:02.460Z,97076.78
2018-03-27T21:47:31.830Z,97072.58
2018-03-27T21:50:01.205Z,97067.18
2018-03-27T21:52:30.394Z,97064.23
2018-03-27T21:54:59.656Z,97065.89
2018-03-27T21:57:29.811Z,97061.23
2018-03-27T21:59:59.085Z,97057.80
2018-03-27T22:02:29.194Z,97044.64
2018-03-27T22:04:59.342Z,97046.84
2018-03-27T22:07:28.618Z,97046.84
2018-03-27T22:09:58.293Z,97041.34
2018-03-27T22:12:27.486Z,97036.69
2018-03-27T22:14:56.325Z,97038.42
2018-03-27T22:17:24.790Z,97035.50
2018-03-27T22:19:53.120Z,97022.78
2018-03-27T22:22:21.393Z,97033.02
2018-03-27T22:24:49.665Z,97026.21
2018-03-27T22:27:17.966Z,97025.31
2018-03-27T22:29:46.997Z,97024.95
2018-03-27T22:32:15.273Z,97019.78
2018-03-27T22:34:43.564Z,97013.37
2018-03-27T22:37:11.822Z,97005.00
2018-03-27T22:39:40.076Z,97001.13
2018-03-27T22:42:09.116Z,97004.92
2018-03-27T22:44:37.384Z,96998.95
2018-03-27T22:47:05.641Z,96989.59
2018-03-27T22:49:33.917Z,96983.36
2018-03-27T22:52:02.168Z,96979.48
2018-03-27T22:54:31.193Z,96981.27
2018-03-27T22:56:59.472Z,96974.02
2018-03-27T22:59:27.737Z,96976.59
2018-03-27T23:01:55.996Z,96977.92
2018-03-27T23:04:24.282Z,96977.05
2018-03-27T23:06:52.536Z,96979.56
2018-03-27T23:09:21.578Z,96984.16
2018-03-27T23:11:49.868Z,96976.95
2018-03-27T23:14:18.137Z,96976.13
2018-03-27T23:16:46.428Z,96979.44
2018-03-27T23:19:14.696Z,96982.33
2018-03-27T23:21:42.953Z,96977.13
2018-03-27T23:24:11.256Z,96979.19
2018-03-27T23:26:39.532Z,96972.34
2018-03-27T23:29:07.794Z,96969.43
2018-03-27T23:31:36.048Z,96964.73
2018-03-27T23:34:04.332Z,96968.55
2018-03-27T23:36:32.584Z,96963.41
2018-03-27T23:39:00.850Z,96960.05
2018-03-27T23:41:30.253Z,96961.83
2018-03-27T23:43:59.304Z,96966.21
2018-03-27T23:46:27.568Z,96961.27
2018-03-27T23:48:55.837Z,96963.83
2018-03-27T23:51:24.096Z,96954.45
2018-03-27T23:53:52.385Z,96953.23
2018-03-27T23:56:20.637Z,96946.81
2018-03-27T23:58:48.936Z,96948.41
